METAR Data
IDs: Format: Raw Decoded Include TAF

Data at: 0046 UTC 20 Jul 2019

METAR for:KFFL (Fairfield Muni, IA, US)
Text:KFFL 200035Z AUTO 19010KT 10SM CLR 33/25 A2976 RMK A01
Temperature: 33.0°C ( 91°F)
Dewpoint: 25.0°C ( 77°F) [RH = 63%]
Pressure (altimeter):29.76 inches Hg (1007.9 mb)
Winds:from the S (190 degrees) at 12 MPH (10 knots; 5.1 m/s)
Visibility:10 or more sm (16+ km)
Ceiling:at least 12,000 feet AGL
Clouds:sky clear below 12,000 feet AGL
QC Flag:automated observation with no human augmentation